Airport View

Enter AWOS ICAO identifier for current METAR.

ex. KFNL

KEND 310356Z AUTO 11006KT 10SM CLR 21/14 A3015 RMK AO2 SLP200 T02080142

31 May 2020 04:50

Other Area AWOS: KWDG - KBKN - KJWG - KGOK

TAF AMD KEND 302333Z 3023/3124 13015G20KT 9999 SKC QNH3004INS BECMG 3103/3104 13010KT 9999 SKC QNH3008INS TX29/3023Z TN16/3112Z LAST NO AMDS AFT 3023 NEXT 0111